Wetterdaten: Woche 05.06.06 - 11.06.06 (KW23)
Datum Zeit Temperatur Luftfeuchte Luftdruck Windrichtung Wind
05.06.2006 00:00 6,6 C 78 % 1022 hPa N 0,0 km/h (0 Bft)
05.06.2006 01:00 5,5 C 82 % 1022 hPa N 0,0 km/h (0 Bft)
05.06.2006 02:00 4,7 C 86 % 1022 hPa N 0,0 km/h (0 Bft)
05.06.2006 03:00 4,4 C 89 % 1022 hPa N 0,0 km/h (0 Bft)
05.06.2006 04:00 4,1 C 90 % 1021 hPa N 0,0 km/h (0 Bft)
05.06.2006 05:00 3,4 C 92 % 1021 hPa N 0,0 km/h (0 Bft)
05.06.2006 06:00 3,6 C 94 % 1021 hPa N 0,0 km/h (0 Bft)
05.06.2006 07:00 4,9 C 96 % 1021 hPa S 0,3 km/h (0 Bft)
05.06.2006 08:00 6,5 C 96 % 1022 hPa N 0,0 km/h (0 Bft)
05.06.2006 09:00 8,3 C 90 % 1022 hPa S 1,6 km/h (1 Bft)
05.06.2006 10:00 9,6 C 82 % 1022 hPa S-SW 10,7 km/h (2 Bft)
05.06.2006 11:00 12,2 C 66 % 1022 hPa S 13,1 km/h (3 Bft)
05.06.2006 12:00 14,2 C 54 % 1022 hPa S-SW 13,0 km/h (3 Bft)
05.06.2006 13:00 12,9 C 60 % 1022 hPa S 9,0 km/h (2 Bft)
05.06.2006 14:00 14,4 C 49 % 1021 hPa N-NW 6,9 km/h (2 Bft)
05.06.2006 15:00 14,4 C 50 % 1021 hPa S-SW 10,7 km/h (2 Bft)
05.06.2006 16:00 13,4 C 58 % 1021 hPa S-SW 11,0 km/h (2 Bft)
05.06.2006 17:00 12,9 C 65 % 1021 hPa W 7,3 km/h (2 Bft)
05.06.2006 18:00 12,7 C 65 % 1021 hPa N 3,5 km/h (1 Bft)
05.06.2006 19:00 13,0 C 65 % 1021 hPa O 4,4 km/h (1 Bft)
05.06.2006 20:00 11,3 C 78 % 1021 hPa N 1,4 km/h (1 Bft)
05.06.2006 21:00 10,2 C 87 % 1021 hPa N 1,6 km/h (1 Bft)
05.06.2006 22:00 9,6 C 92 % 1022 hPa NW 0,9 km/h (0 Bft)
05.06.2006 23:00 9,2 C 93 % 1022 hPa N 0,0 km/h (0 Bft)
06.06.2006 00:00 8,8 C 95 % 1022 hPa W 0,8 km/h (0 Bft)
06.06.2006 01:00 8,6 C 96 % 1022 hPa N 0,0 km/h (0 Bft)
06.06.2006 02:00 8,4 C 97 % 1022 hPa N 0,0 km/h (0 Bft)
06.06.2006 03:00 8,2 C 97 % 1022 hPa N 0,0 km/h (0 Bft)
06.06.2006 04:00 7,9 C 98 % 1022 hPa NW 1,9 km/h (1 Bft)
06.06.2006 05:00 7,6 C 98 % 1022 hPa NW 2,1 km/h (1 Bft)
06.06.2006 06:00 7,6 C 98 % 1022 hPa N-NW 1,0 km/h (0 Bft)
06.06.2006 07:00 8,5 C 96 % 1023 hPa NO 0,3 km/h (0 Bft)
06.06.2006 08:00 10,0 C 74 % 1023 hPa N 5,5 km/h (1 Bft)
06.06.2006 09:00 11,5 C 61 % 1023 hPa N 8,8 km/h (2 Bft)
06.06.2006 10:00 13,0 C 49 % 1024 hPa N 11,2 km/h (2 Bft)
06.06.2006 11:00 12,0 C 55 % 1024 hPa N 14,5 km/h (3 Bft)
06.06.2006 12:00 11,8 C 56 % 1024 hPa N 13,5 km/h (3 Bft)
06.06.2006 13:00 12,2 C 53 % 1024 hPa N-NO 12,9 km/h (3 Bft)
06.06.2006 14:00 14,5 C 45 % 1024 hPa O-NO 12,0 km/h (2 Bft)
06.06.2006 15:00 14,1 C 43 % 1024 hPa N 12,9 km/h (3 Bft)
06.06.2006 16:00 14,5 C 39 % 1024 hPa N 13,1 km/h (3 Bft)
06.06.2006 17:00 14,2 C 38 % 1024 hPa N 10,2 km/h (2 Bft)
06.06.2006 18:00 15,5 C 36 % 1024 hPa N 10,7 km/h (2 Bft)
06.06.2006 19:00 14,8 C 37 % 1025 hPa N 13,3 km/h (3 Bft)
06.06.2006 20:00 12,2 C 50 % 1025 hPa N-NO 17,1 km/h (3 Bft)
06.06.2006 21:00 10,6 C 58 % 1026 hPa N-NO 5,8 km/h (1 Bft)
06.06.2006 22:00 8,4 C 68 % 1026 hPa N 0,0 km/h (0 Bft)
06.06.2006 23:00 6,9 C 75 % 1026 hPa N 0,0 km/h (0 Bft)
07.06.2006 00:00 5,8 C 80 % 1026 hPa NW 0,2 km/h (0 Bft)
07.06.2006 01:00 5,1 C 83 % 1026 hPa N-NW 0,3 km/h (0 Bft)
07.06.2006 02:00 4,2 C 86 % 1026 hPa N 0,0 km/h (0 Bft)
07.06.2006 03:00 3,6 C 88 % 1026 hPa N 0,0 km/h (0 Bft)
07.06.2006 04:00 3,0 C 89 % 1025 hPa N 0,0 km/h (0 Bft)
07.06.2006 05:00 3,0 C 91 % 1026 hPa N 0,0 km/h (0 Bft)
07.06.2006 06:00 3,6 C 93 % 1026 hPa N 0,0 km/h (0 Bft)
07.06.2006 07:00 5,7 C 96 % 1026 hPa N 3,2 km/h (1 Bft)
07.06.2006 08:00 8,3 C 84 % 1026 hPa N-NO 7,4 km/h (2 Bft)
07.06.2006 09:00 10,7 C 68 % 1026 hPa NO 11,3 km/h (2 Bft)
07.06.2006 10:00 12,6 C 54 % 1026 hPa N-NO 13,1 km/h (3 Bft)
07.06.2006 11:00 14,5 C 46 % 1026 hPa O 13,9 km/h (3 Bft)
07.06.2006 12:00 15,8 C 40 % 1026 hPa O-NO 15,0 km/h (3 Bft)
07.06.2006 13:00 16,9 C 37 % 1026 hPa O 15,4 km/h (3 Bft)
07.06.2006 14:00 17,4 C 37 % 1026 hPa N-NO 16,5 km/h (3 Bft)
07.06.2006 15:00 18,5 C 36 % 1025 hPa O 15,0 km/h (3 Bft)
07.06.2006 16:00 18,2 C 35 % 1025 hPa N 15,1 km/h (3 Bft)
07.06.2006 17:00 17,9 C 36 % 1025 hPa O-NO 14,8 km/h (3 Bft)
07.06.2006 18:00 18,1 C 36 % 1024 hPa NO 13,6 km/h (3 Bft)
07.06.2006 19:00 16,9 C 37 % 1024 hPa N-NO 17,0 km/h (3 Bft)
07.06.2006 20:00 15,1 C 42 % 1025 hPa N-NO 10,6 km/h (2 Bft)
07.06.2006 21:00 13,3 C 49 % 1025 hPa N 4,4 km/h (1 Bft)
07.06.2006 22:00 10,9 C 58 % 1025 hPa N 0,0 km/h (0 Bft)
07.06.2006 23:00 9,5 C 64 % 1025 hPa N 0,0 km/h (0 Bft)
08.06.2006 00:00 8,5 C 71 % 1025 hPa NW 0,8 km/h (0 Bft)
08.06.2006 01:00 7,9 C 74 % 1025 hPa NW 1,4 km/h (1 Bft)
08.06.2006 02:00 7,3 C 77 % 1025 hPa W-NW 7,8 km/h (2 Bft)
08.06.2006 03:00 6,8 C 79 % 1025 hPa NW 4,1 km/h (1 Bft)
08.06.2006 04:00 6,3 C 82 % 1025 hPa NW 7,9 km/h (2 Bft)
08.06.2006 05:00 5,8 C 84 % 1025 hPa NW 6,4 km/h (2 Bft)
08.06.2006 06:00 6,2 C 87 % 1025 hPa NW 5,5 km/h (1 Bft)
08.06.2006 07:00 8,3 C 80 % 1025 hPa N-NO 8,1 km/h (2 Bft)
08.06.2006 08:00 11,0 C 67 % 1026 hPa N 12,3 km/h (3 Bft)
08.06.2006 09:00 13,9 C 52 % 1026 hPa NO 15,5 km/h (3 Bft)
08.06.2006 10:00 16,1 C 42 % 1026 hPa O-NO 19,6 km/h (3 Bft)
08.06.2006 11:00 17,6 C 37 % 1026 hPa NO 20,9 km/h (4 Bft)
08.06.2006 12:00 18,5 C 36 % 1026 hPa O-NO 20,1 km/h (4 Bft)
08.06.2006 13:00 19,2 C 33 % 1026 hPa NO 18,9 km/h (3 Bft)
08.06.2006 14:00 19,5 C 32 % 1025 hPa N-NO 17,9 km/h (3 Bft)
08.06.2006 15:00 18,8 C 35 % 1025 hPa N-NO 18,6 km/h (3 Bft)
08.06.2006 16:00 18,5 C 35 % 1025 hPa NO 17,3 km/h (3 Bft)
08.06.2006 17:00 19,2 C 35 % 1025 hPa N-NO 16,3 km/h (3 Bft)
08.06.2006 18:00 18,8 C 35 % 1025 hPa N-NO 17,3 km/h (3 Bft)
08.06.2006 19:00 17,7 C 35 % 1025 hPa N-NO 13,3 km/h (3 Bft)
08.06.2006 20:00 16,4 C 38 % 1025 hPa N-NO 12,1 km/h (2 Bft)
08.06.2006 21:00 14,5 C 44 % 1025 hPa N 6,6 km/h (2 Bft)
08.06.2006 22:00 12,5 C 50 % 1025 hPa N 0,8 km/h (0 Bft)
08.06.2006 23:00 10,7 C 57 % 1026 hPa N 0,0 km/h (0 Bft)
09.06.2006 00:00 9,6 C 61 % 1026 hPa W-NW 2,3 km/h (1 Bft)
09.06.2006 01:00 8,8 C 65 % 1025 hPa N 0,0 km/h (0 Bft)
09.06.2006 02:00 8,1 C 71 % 1025 hPa NW 2,4 km/h (1 Bft)
09.06.2006 03:00 7,5 C 74 % 1025 hPa W-NW 6,0 km/h (2 Bft)
09.06.2006 04:00 7,0 C 75 % 1025 hPa W-NW 6,3 km/h (2 Bft)
09.06.2006 05:00 6,5 C 78 % 1025 hPa W-NW 3,6 km/h (1 Bft)
09.06.2006 06:00 6,9 C 78 % 1025 hPa N-NW 4,2 km/h (1 Bft)
09.06.2006 07:00 8,9 C 72 % 1025 hPa N 9,7 km/h (2 Bft)
09.06.2006 08:00 12,1 C 57 % 1025 hPa N-NO 12,0 km/h (2 Bft)
09.06.2006 09:00 15,1 C 46 % 1025 hPa N-NO 17,4 km/h (3 Bft)
09.06.2006 10:00 17,7 C 37 % 1025 hPa NO 21,5 km/h (4 Bft)
09.06.2006 11:00 19,1 C 34 % 1025 hPa O-NO 22,9 km/h (4 Bft)
09.06.2006 12:00 19,8 C 32 % 1025 hPa O-NO 23,6 km/h (4 Bft)
09.06.2006 13:00 20,5 C 31 % 1024 hPa N-NO 20,5 km/h (4 Bft)
09.06.2006 14:00 21,1 C 29 % 1024 hPa O-NO 22,6 km/h (4 Bft)
09.06.2006 15:00 21,5 C 29 % 1023 hPa NO 19,1 km/h (3 Bft)
09.06.2006 16:00 21,6 C 28 % 1023 hPa O 20,7 km/h (4 Bft)
09.06.2006 17:00 21,4 C 28 % 1023 hPa N-NO 19,9 km/h (4 Bft)
09.06.2006 18:00 20,9 C 29 % 1023 hPa O-NO 19,5 km/h (3 Bft)
09.06.2006 19:00 19,9 C 29 % 1022 hPa O-NO 16,3 km/h (3 Bft)
09.06.2006 20:00 18,3 C 32 % 1022 hPa O-NO 5,1 km/h (1 Bft)
09.06.2006 21:00 15,6 C 41 % 1023 hPa NW 1,7 km/h (1 Bft)
09.06.2006 22:00 13,7 C 48 % 1023 hPa N 0,0 km/h (0 Bft)
09.06.2006 23:00 12,2 C 55 % 1023 hPa N 0,0 km/h (0 Bft)
10.06.2006 00:00 10,9 C 63 % 1023 hPa W-NW 0,6 km/h (0 Bft)
10.06.2006 01:00 10,4 C 66 % 1023 hPa W-NW 4,0 km/h (1 Bft)
10.06.2006 02:00 9,9 C 67 % 1022 hPa W-NW 2,0 km/h (1 Bft)
10.06.2006 03:00 9,3 C 71 % 1022 hPa W-NW 2,7 km/h (1 Bft)
10.06.2006 04:00 9,2 C 73 % 1022 hPa W-NW 9,1 km/h (2 Bft)
10.06.2006 05:00 9,0 C 74 % 1022 hPa NW 7,5 km/h (2 Bft)
10.06.2006 06:00 8,9 C 76 % 1022 hPa N 0,0 km/h (0 Bft)
10.06.2006 07:00 10,9 C 72 % 1023 hPa N-NW 7,3 km/h (2 Bft)
10.06.2006 08:00 13,7 C 61 % 1023 hPa N 8,7 km/h (2 Bft)
10.06.2006 09:00 16,5 C 49 % 1023 hPa O-SO 5,7 km/h (1 Bft)
10.06.2006 10:00 19,5 C 40 % 1023 hPa N-NO 9,3 km/h (2 Bft)
10.06.2006 11:00 21,4 C 36 % 1023 hPa N-NO 14,0 km/h (3 Bft)
10.06.2006 12:00 22,6 C 34 % 1023 hPa O 14,1 km/h (3 Bft)
10.06.2006 13:00 23,2 C 33 % 1023 hPa NO 16,1 km/h (3 Bft)
10.06.2006 14:00 23,5 C 33 % 1022 hPa O 15,9 km/h (3 Bft)
10.06.2006 15:00 24,0 C 31 % 1022 hPa O 13,1 km/h (3 Bft)
10.06.2006 16:00 24,5 C 31 % 1022 hPa O-NO 13,2 km/h (3 Bft)
10.06.2006 17:00 24,4 C 31 % 1022 hPa N-NO 15,1 km/h (3 Bft)
10.06.2006 18:00 23,6 C 33 % 1022 hPa N-NO 16,9 km/h (3 Bft)
10.06.2006 19:00 22,3 C 34 % 1022 hPa N-NO 15,7 km/h (3 Bft)
10.06.2006 20:00 20,8 C 38 % 1022 hPa N-NO 11,1 km/h (2 Bft)
10.06.2006 21:00 18,6 C 46 % 1022 hPa O-NO 0,3 km/h (0 Bft)
10.06.2006 22:00 15,8 C 57 % 1022 hPa N 0,0 km/h (0 Bft)
10.06.2006 23:00 14,5 C 63 % 1023 hPa W-NW 0,6 km/h (0 Bft)
11.06.2006 00:00 13,9 C 65 % 1023 hPa W-NW 0,9 km/h (0 Bft)
11.06.2006 01:00 13,1 C 69 % 1023 hPa N 0,0 km/h (0 Bft)
11.06.2006 02:00 12,5 C 74 % 1023 hPa NW 1,4 km/h (1 Bft)
11.06.2006 03:00 12,0 C 75 % 1023 hPa NW 3,6 km/h (1 Bft)
11.06.2006 04:00 11,4 C 77 % 1023 hPa W-NW 4,7 km/h (1 Bft)
11.06.2006 05:00 11,1 C 81 % 1024 hPa N-NW 6,0 km/h (2 Bft)
11.06.2006 06:00 11,3 C 83 % 1024 hPa NW 6,6 km/h (2 Bft)
11.06.2006 07:00 12,7 C 74 % 1025 hPa N-NO 10,5 km/h (2 Bft)
11.06.2006 08:00 14,6 C 66 % 1025 hPa N-NO 13,4 km/h (3 Bft)
11.06.2006 09:00 16,7 C 54 % 1025 hPa N-NO 19,4 km/h (3 Bft)
11.06.2006 10:00 18,6 C 45 % 1025 hPa N-NO 21,1 km/h (4 Bft)
11.06.2006 11:00 19,8 C 37 % 1025 hPa N-NO 23,6 km/h (4 Bft)
11.06.2006 12:00 21,0 C 35 % 1025 hPa O-NO 24,2 km/h (4 Bft)
11.06.2006 13:00 21,8 C 32 % 1025 hPa O-NO 25,5 km/h (4 Bft)
11.06.2006 14:00 22,3 C 29 % 1024 hPa NO 24,5 km/h (4 Bft)
11.06.2006 15:00 23,0 C 30 % 1024 hPa N-NO 24,4 km/h (4 Bft)
11.06.2006 16:00 23,1 C 29 % 1024 hPa N-NO 25,1 km/h (4 Bft)
11.06.2006 17:00 23,3 C 29 % 1024 hPa NO 22,5 km/h (4 Bft)
11.06.2006 18:00 22,4 C 30 % 1024 hPa NO 24,4 km/h (4 Bft)
11.06.2006 19:00 20,9 C 34 % 1024 hPa NO 22,9 km/h (4 Bft)
11.06.2006 20:00 19,3 C 38 % 1024 hPa NO 19,0 km/h (3 Bft)
11.06.2006 21:00 17,7 C 43 % 1024 hPa N-NO 13,4 km/h (3 Bft)
11.06.2006 22:00 16,3 C 48 % 1025 hPa N-NO 12,1 km/h (2 Bft)
11.06.2006 23:00 15,3 C 51 % 1025 hPa N 13,6 km/h (3 Bft)
Min-Datum _ 07.06.06 11.06.06 05.06.06 - 05.06.06
_ Min-Zeit 04:51 16:36 19:02 - 00:00
Minimum _ 2,8 C 27 % 1020 hPa - 0,0 km/h (0 Bft)
Max-Datum _ 10.06.06 06.06.06 06.06.06 - 11.06.06
_ Max-Zeit 17:01 06:43 21:33 - 13:00
Maximum _ 24,9 C 99 % 1026 hPa - 38,3 km/h
O-NO (5 Bft)
Durchschnitt _ 13,4 C 58 % 1024 hPa N-NO 9,3 km/h (2 Bft)

Durchschnitt Minimum Temp.12,8 C
Durchschnitt Maximum Temp.14,0 C